sensor_id;sensor_type;location;lat;lon;timestamp;P1;durP1;ratioP1;P2;durP2;ratioP2
15317;SDS011;7759;52.528;13.346;2022-11-24T00:00:33;43.73;;;19.13;;
15317;SDS011;7759;52.528;13.346;2022-11-24T00:02:58;43.93;;;18.47;;
15317;SDS011;7759;52.528;13.346;2022-11-24T00:05:25;40.07;;;19.10;;
15317;SDS011;7759;52.528;13.346;2022-11-24T00:07:51;46.63;;;20.37;;
15317;SDS011;7759;52.528;13.346;2022-11-24T00:10:17;49.63;;;20.47;;
15317;SDS011;7759;52.528;13.346;2022-11-24T00:12:42;37.13;;;17.67;;
15317;SDS011;7759;52.528;13.346;2022-11-24T00:15:08;44.93;;;18.63;;
15317;SDS011;7759;52.528;13.346;2022-11-24T00:17:34;40.47;;;17.97;;
15317;SDS011;7759;52.528;13.346;2022-11-24T00:20:00;45.97;;;18.70;;
15317;SDS011;7759;52.528;13.346;2022-11-24T00:22:26;42.60;;;17.17;;
15317;SDS011;7759;52.528;13.346;2022-11-24T00:24:52;39.43;;;19.13;;
15317;SDS011;7759;52.528;13.346;2022-11-24T00:27:18;39.10;;;17.50;;
15317;SDS011;7759;52.528;13.346;2022-11-24T00:29:44;42.90;;;18.37;;
15317;SDS011;7759;52.528;13.346;2022-11-24T00:32:10;50.97;;;20.67;;
15317;SDS011;7759;52.528;13.346;2022-11-24T00:34:35;39.37;;;17.50;;
15317;SDS011;7759;52.528;13.346;2022-11-24T00:37:01;40.10;;;18.37;;
15317;SDS011;7759;52.528;13.346;2022-11-24T00:39:27;44.93;;;19.23;;
15317;SDS011;7759;52.528;13.346;2022-11-24T00:41:53;52.27;;;20.30;;
15317;SDS011;7759;52.528;13.346;2022-11-24T00:44:19;44.37;;;19.27;;
15317;SDS011;7759;52.528;13.346;2022-11-24T00:46:45;40.73;;;17.90;;
15317;SDS011;7759;52.528;13.346;2022-11-24T00:49:11;43.10;;;17.67;;
15317;SDS011;7759;52.528;13.346;2022-11-24T00:51:37;38.13;;;17.93;;
15317;SDS011;7759;52.528;13.346;2022-11-24T00:54:03;46.70;;;19.27;;
15317;SDS011;7759;52.528;13.346;2022-11-24T00:56:30;41.27;;;18.33;;
15317;SDS011;7759;52.528;13.346;2022-11-24T00:58:56;39.87;;;17.43;;
15317;SDS011;7759;52.528;13.346;2022-11-24T01:01:23;40.80;;;19.13;;
15317;SDS011;7759;52.528;13.346;2022-11-24T01:03:49;44.93;;;18.23;;
15317;SDS011;7759;52.528;13.346;2022-11-24T01:06:16;47.53;;;19.40;;
15317;SDS011;7759;52.528;13.346;2022-11-24T01:08:42;39.00;;;18.73;;
15317;SDS011;7759;52.528;13.346;2022-11-24T01:13:38;41.90;;;19.10;;
15317;SDS011;7759;52.528;13.346;2022-11-24T01:16:04;38.67;;;18.17;;
15317;SDS011;7759;52.528;13.346;2022-11-24T01:18:30;47.33;;;19.50;;
15317;SDS011;7759;52.528;13.346;2022-11-24T01:20:56;40.73;;;17.03;;
15317;SDS011;7759;52.528;13.346;2022-11-24T01:23:22;39.47;;;17.30;;
15317;SDS011;7759;52.528;13.346;2022-11-24T01:25:48;46.07;;;20.07;;
15317;SDS011;7759;52.528;13.346;2022-11-24T01:28:14;44.53;;;19.57;;
15317;SDS011;7759;52.528;13.346;2022-11-24T01:30:39;46.10;;;17.70;;
15317;SDS011;7759;52.528;13.346;2022-11-24T01:33:05;37.70;;;17.93;;
15317;SDS011;7759;52.528;13.346;2022-11-24T01:35:31;46.10;;;20.20;;
15317;SDS011;7759;52.528;13.346;2022-11-24T01:37:57;42.40;;;19.07;;
15317;SDS011;7759;52.528;13.346;2022-11-24T01:40:23;43.17;;;17.27;;
15317;SDS011;7759;52.528;13.346;2022-11-24T01:42:50;40.20;;;17.90;;
15317;SDS011;7759;52.528;13.346;2022-11-24T01:47:51;32.27;;;14.50;;
15317;SDS011;7759;52.528;13.346;2022-11-24T01:50:17;34.23;;;16.40;;
15317;SDS011;7759;52.528;13.346;2022-11-24T01:52:44;44.43;;;19.50;;
15317;SDS011;7759;52.528;13.346;2022-11-24T01:55:13;35.43;;;16.23;;
15317;SDS011;7759;52.528;13.346;2022-11-24T01:57:42;44.37;;;17.80;;
15317;SDS011;7759;52.528;13.346;2022-11-24T02:00:10;40.17;;;16.30;;
15317;SDS011;7759;52.528;13.346;2022-11-24T02:02:36;38.67;;;18.17;;
15317;SDS011;7759;52.528;13.346;2022-11-24T02:05:10;33.10;;;16.53;;
15317;SDS011;7759;52.528;13.346;2022-11-24T02:07:38;33.40;;;16.33;;
15317;SDS011;7759;52.528;13.346;2022-11-24T02:10:09;33.50;;;15.43;;
15317;SDS011;7759;52.528;13.346;2022-11-24T02:12:38;38.63;;;17.40;;
15317;SDS011;7759;52.528;13.346;2022-11-24T02:15:04;36.90;;;15.43;;
15317;SDS011;7759;52.528;13.346;2022-11-24T02:17:30;35.73;;;16.73;;
15317;SDS011;7759;52.528;13.346;2022-11-24T02:19:57;32.33;;;14.03;;
15317;SDS011;7759;52.528;13.346;2022-11-24T02:22:33;39.13;;;17.40;;
15317;SDS011;7759;52.528;13.346;2022-11-24T02:25:06;36.37;;;16.13;;
15317;SDS011;7759;52.528;13.346;2022-11-24T02:27:36;34.10;;;15.60;;
15317;SDS011;7759;52.528;13.346;2022-11-24T02:30:02;38.37;;;17.63;;
15317;SDS011;7759;52.528;13.346;2022-11-24T02:32:28;31.50;;;14.33;;
15317;SDS011;7759;52.528;13.346;2022-11-24T02:34:59;33.60;;;15.50;;
15317;SDS011;7759;52.528;13.346;2022-11-24T02:37:25;36.93;;;17.07;;
15317;SDS011;7759;52.528;13.346;2022-11-24T02:39:51;33.63;;;15.23;;
15317;SDS011;7759;52.528;13.346;2022-11-24T02:42:17;33.80;;;16.47;;
15317;SDS011;7759;52.528;13.346;2022-11-24T02:44:44;37.63;;;16.03;;
15317;SDS011;7759;52.528;13.346;2022-11-24T02:47:11;34.10;;;14.67;;
15317;SDS011;7759;52.528;13.346;2022-11-24T02:49:37;36.50;;;16.43;;
15317;SDS011;7759;52.528;13.346;2022-11-24T02:52:03;36.10;;;15.87;;
15317;SDS011;7759;52.528;13.346;2022-11-24T02:54:29;34.17;;;15.50;;
15317;SDS011;7759;52.528;13.346;2022-11-24T02:56:55;42.00;;;17.23;;
15317;SDS011;7759;52.528;13.346;2022-11-24T02:59:22;37.93;;;16.50;;
15317;SDS011;7759;52.528;13.346;2022-11-24T03:01:47;30.23;;;13.63;;
15317;SDS011;7759;52.528;13.346;2022-11-24T03:04:13;35.17;;;14.87;;
15317;SDS011;7759;52.528;13.346;2022-11-24T03:06:39;32.77;;;16.07;;
15317;SDS011;7759;52.528;13.346;2022-11-24T03:09:07;41.97;;;17.47;;
15317;SDS011;7759;52.528;13.346;2022-11-24T03:11:33;35.37;;;17.20;;
15317;SDS011;7759;52.528;13.346;2022-11-24T03:13:58;31.77;;;15.37;;
15317;SDS011;7759;52.528;13.346;2022-11-24T03:16:24;33.70;;;16.73;;
15317;SDS011;7759;52.528;13.346;2022-11-24T03:18:51;37.67;;;15.93;;
15317;SDS011;7759;52.528;13.346;2022-11-24T03:21:17;37.03;;;16.47;;
15317;SDS011;7759;52.528;13.346;2022-11-24T03:23:42;40.50;;;16.10;;
15317;SDS011;7759;52.528;13.346;2022-11-24T03:26:09;39.50;;;16.27;;
15317;SDS011;7759;52.528;13.346;2022-11-24T03:28:35;34.77;;;16.20;;
15317;SDS011;7759;52.528;13.346;2022-11-24T03:31:01;38.83;;;18.33;;
15317;SDS011;7759;52.528;13.346;2022-11-24T03:33:27;35.97;;;14.27;;
15317;SDS011;7759;52.528;13.346;2022-11-24T03:35:53;42.57;;;17.87;;
15317;SDS011;7759;52.528;13.346;2022-11-24T03:38:19;35.40;;;16.67;;
15317;SDS011;7759;52.528;13.346;2022-11-24T03:40:45;34.67;;;14.87;;
15317;SDS011;7759;52.528;13.346;2022-11-24T03:43:11;30.50;;;13.87;;
15317;SDS011;7759;52.528;13.346;2022-11-24T03:45:37;39.07;;;15.90;;
15317;SDS011;7759;52.528;13.346;2022-11-24T03:48:04;35.53;;;15.73;;
15317;SDS011;7759;52.528;13.346;2022-11-24T03:50:30;34.10;;;15.80;;
15317;SDS011;7759;52.528;13.346;2022-11-24T03:52:56;37.80;;;16.20;;
15317;SDS011;7759;52.528;13.346;2022-11-24T03:55:22;34.30;;;16.00;;
15317;SDS011;7759;52.528;13.346;2022-11-24T03:57:48;36.37;;;14.67;;
15317;SDS011;7759;52.528;13.346;2022-11-24T04:00:14;34.07;;;15.10;;
15317;SDS011;7759;52.528;13.346;2022-11-24T04:02:40;34.23;;;14.47;;
15317;SDS011;7759;52.528;13.346;2022-11-24T04:05:06;38.00;;;15.03;;
15317;SDS011;7759;52.528;13.346;2022-11-24T04:07:32;28.80;;;14.60;;
15317;SDS011;7759;52.528;13.346;2022-11-24T04:09:57;32.70;;;14.10;;
15317;SDS011;7759;52.528;13.346;2022-11-24T04:12:23;32.60;;;14.33;;
15317;SDS011;7759;52.528;13.346;2022-11-24T04:15:08;40.03;;;16.90;;
15317;SDS011;7759;52.528;13.346;2022-11-24T04:17:34;35.27;;;15.33;;
15317;SDS011;7759;52.528;13.346;2022-11-24T04:20:00;31.27;;;15.13;;
15317;SDS011;7759;52.528;13.346;2022-11-24T04:22:26;35.30;;;15.77;;
15317;SDS011;7759;52.528;13.346;2022-11-24T04:24:52;33.63;;;15.17;;
15317;SDS011;7759;52.528;13.346;2022-11-24T04:27:18;30.33;;;13.60;;
15317;SDS011;7759;52.528;13.346;2022-11-24T04:29:44;33.50;;;14.60;;
15317;SDS011;7759;52.528;13.346;2022-11-24T04:32:09;33.10;;;14.97;;
15317;SDS011;7759;52.528;13.346;2022-11-24T04:34:35;36.20;;;15.27;;
15317;SDS011;7759;52.528;13.346;2022-11-24T04:37:01;35.37;;;15.93;;
15317;SDS011;7759;52.528;13.346;2022-11-24T04:39:27;38.93;;;16.00;;
15317;SDS011;7759;52.528;13.346;2022-11-24T04:41:53;31.10;;;13.47;;
15317;SDS011;7759;52.528;13.346;2022-11-24T04:44:19;36.23;;;14.80;;
15317;SDS011;7759;52.528;13.346;2022-11-24T04:46:45;38.10;;;15.83;;
15317;SDS011;7759;52.528;13.346;2022-11-24T04:49:11;32.80;;;13.87;;
15317;SDS011;7759;52.528;13.346;2022-11-24T04:51:38;31.67;;;14.47;;
15317;SDS011;7759;52.528;13.346;2022-11-24T04:54:04;31.87;;;14.77;;
15317;SDS011;7759;52.528;13.346;2022-11-24T04:56:30;32.40;;;13.83;;
15317;SDS011;7759;52.528;13.346;2022-11-24T04:58:56;34.50;;;13.73;;
15317;SDS011;7759;52.528;13.346;2022-11-24T05:01:22;37.00;;;14.30;;
15317;SDS011;7759;52.528;13.346;2022-11-24T05:03:48;27.63;;;13.83;;
15317;SDS011;7759;52.528;13.346;2022-11-24T05:06:14;33.03;;;15.30;;
15317;SDS011;7759;52.528;13.346;2022-11-24T05:08:40;27.37;;;13.50;;
15317;SDS011;7759;52.528;13.346;2022-11-24T05:11:06;30.70;;;12.47;;
15317;SDS011;7759;52.528;13.346;2022-11-24T05:13:32;33.67;;;14.53;;
15317;SDS011;7759;52.528;13.346;2022-11-24T05:15:58;35.83;;;14.97;;
15317;SDS011;7759;52.528;13.346;2022-11-24T05:18:25;28.63;;;12.77;;
15317;SDS011;7759;52.528;13.346;2022-11-24T05:20:51;29.87;;;13.50;;
15317;SDS011;7759;52.528;13.346;2022-11-24T05:23:17;26.27;;;12.47;;
15317;SDS011;7759;52.528;13.346;2022-11-24T05:25:43;27.60;;;13.13;;
15317;SDS011;7759;52.528;13.346;2022-11-24T05:28:09;30.13;;;14.40;;
15317;SDS011;7759;52.528;13.346;2022-11-24T05:30:35;31.80;;;13.00;;
15317;SDS011;7759;52.528;13.346;2022-11-24T05:33:12;30.40;;;13.30;;
15317;SDS011;7759;52.528;13.346;2022-11-24T05:35:42;26.80;;;12.90;;
15317;SDS011;7759;52.528;13.346;2022-11-24T05:38:08;34.07;;;14.13;;
15317;SDS011;7759;52.528;13.346;2022-11-24T05:40:34;28.33;;;12.53;;
15317;SDS011;7759;52.528;13.346;2022-11-24T05:43:00;25.77;;;11.23;;
15317;SDS011;7759;52.528;13.346;2022-11-24T05:45:26;27.17;;;11.87;;
15317;SDS011;7759;52.528;13.346;2022-11-24T05:47:52;30.17;;;12.97;;
15317;SDS011;7759;52.528;13.346;2022-11-24T05:50:19;29.13;;;12.97;;
15317;SDS011;7759;52.528;13.346;2022-11-24T05:52:45;27.17;;;12.33;;
15317;SDS011;7759;52.528;13.346;2022-11-24T05:55:11;26.80;;;12.47;;
15317;SDS011;7759;52.528;13.346;2022-11-24T05:57:39;26.17;;;11.47;;
15317;SDS011;7759;52.528;13.346;2022-11-24T06:00:05;28.17;;;12.93;;
15317;SDS011;7759;52.528;13.346;2022-11-24T06:02:31;27.23;;;11.87;;
15317;SDS011;7759;52.528;13.346;2022-11-24T06:04:57;28.87;;;13.13;;
15317;SDS011;7759;52.528;13.346;2022-11-24T06:07:23;30.13;;;13.13;;
15317;SDS011;7759;52.528;13.346;2022-11-24T06:09:49;31.77;;;12.77;;
15317;SDS011;7759;52.528;13.346;2022-11-24T06:12:15;30.47;;;14.10;;
15317;SDS011;7759;52.528;13.346;2022-11-24T06:14:41;25.00;;;12.03;;
15317;SDS011;7759;52.528;13.346;2022-11-24T06:17:08;24.77;;;11.80;;
15317;SDS011;7759;52.528;13.346;2022-11-24T06:19:34;27.30;;;12.17;;
15317;SDS011;7759;52.528;13.346;2022-11-24T06:22:00;26.00;;;10.37;;
15317;SDS011;7759;52.528;13.346;2022-11-24T06:24:26;27.23;;;12.07;;
15317;SDS011;7759;52.528;13.346;2022-11-24T06:26:52;24.57;;;11.27;;
15317;SDS011;7759;52.528;13.346;2022-11-24T06:29:18;25.73;;;11.60;;
15317;SDS011;7759;52.528;13.346;2022-11-24T06:31:44;21.43;;;10.47;;
15317;SDS011;7759;52.528;13.346;2022-11-24T06:34:10;26.33;;;11.93;;
15317;SDS011;7759;52.528;13.346;2022-11-24T06:36:37;21.90;;;10.73;;
15317;SDS011;7759;52.528;13.346;2022-11-24T06:39:05;33.50;;;13.27;;
15317;SDS011;7759;52.528;13.346;2022-11-24T06:41:31;32.37;;;13.17;;
15317;SDS011;7759;52.528;13.346;2022-11-24T06:43:57;31.03;;;13.10;;
15317;SDS011;7759;52.528;13.346;2022-11-24T06:46:23;24.57;;;10.37;;
15317;SDS011;7759;52.528;13.346;2022-11-24T06:48:50;42.20;;;14.87;;
15317;SDS011;7759;52.528;13.346;2022-11-24T06:51:16;22.90;;;9.87;;
15317;SDS011;7759;52.528;13.346;2022-11-24T06:53:43;28.27;;;12.20;;
15317;SDS011;7759;52.528;13.346;2022-11-24T06:56:10;22.73;;;11.27;;
15317;SDS011;7759;52.528;13.346;2022-11-24T06:58:40;22.80;;;10.17;;
15317;SDS011;7759;52.528;13.346;2022-11-24T07:01:06;24.80;;;11.03;;
15317;SDS011;7759;52.528;13.346;2022-11-24T07:03:32;21.50;;;10.17;;
15317;SDS011;7759;52.528;13.346;2022-11-24T07:05:58;26.50;;;12.67;;
15317;SDS011;7759;52.528;13.346;2022-11-24T07:08:24;26.20;;;10.73;;
15317;SDS011;7759;52.528;13.346;2022-11-24T07:10:50;23.33;;;10.57;;
15317;SDS011;7759;52.528;13.346;2022-11-24T07:13:16;26.03;;;11.10;;
15317;SDS011;7759;52.528;13.346;2022-11-24T07:15:42;21.97;;;11.03;;
15317;SDS011;7759;52.528;13.346;2022-11-24T07:18:08;27.57;;;10.67;;
15317;SDS011;7759;52.528;13.346;2022-11-24T07:20:34;28.40;;;12.20;;
15317;SDS011;7759;52.528;13.346;2022-11-24T07:23:00;25.80;;;11.90;;
15317;SDS011;7759;52.528;13.346;2022-11-24T07:25:26;23.97;;;10.57;;
15317;SDS011;7759;52.528;13.346;2022-11-24T07:27:55;27.10;;;12.00;;
15317;SDS011;7759;52.528;13.346;2022-11-24T07:30:21;31.83;;;11.63;;
15317;SDS011;7759;52.528;13.346;2022-11-24T07:32:47;23.87;;;9.90;;
15317;SDS011;7759;52.528;13.346;2022-11-24T07:35:13;22.43;;;10.80;;
15317;SDS011;7759;52.528;13.346;2022-11-24T07:37:39;29.00;;;12.87;;
15317;SDS011;7759;52.528;13.346;2022-11-24T07:40:05;21.60;;;10.10;;
15317;SDS011;7759;52.528;13.346;2022-11-24T07:42:32;27.33;;;12.00;;
15317;SDS011;7759;52.528;13.346;2022-11-24T07:44:57;23.77;;;11.00;;
15317;SDS011;7759;52.528;13.346;2022-11-24T07:47:23;26.27;;;12.67;;
15317;SDS011;7759;52.528;13.346;2022-11-24T07:49:49;29.63;;;11.03;;
15317;SDS011;7759;52.528;13.346;2022-11-24T07:52:15;24.90;;;10.13;;
15317;SDS011;7759;52.528;13.346;2022-11-24T07:54:41;24.40;;;12.10;;
15317;SDS011;7759;52.528;13.346;2022-11-24T07:57:07;23.00;;;10.97;;
15317;SDS011;7759;52.528;13.346;2022-11-24T07:59:33;26.13;;;10.60;;
15317;SDS011;7759;52.528;13.346;2022-11-24T08:01:59;23.87;;;10.47;;
15317;SDS011;7759;52.528;13.346;2022-11-24T08:04:25;25.43;;;10.93;;
15317;SDS011;7759;52.528;13.346;2022-11-24T08:06:51;25.00;;;11.83;;
15317;SDS011;7759;52.528;13.346;2022-11-24T08:09:17;25.97;;;12.40;;
15317;SDS011;7759;52.528;13.346;2022-11-24T08:11:43;23.77;;;11.30;;
15317;SDS011;7759;52.528;13.346;2022-11-24T08:14:09;24.97;;;11.40;;
15317;SDS011;7759;52.528;13.346;2022-11-24T08:16:34;26.90;;;11.50;;
15317;SDS011;7759;52.528;13.346;2022-11-24T08:19:00;34.03;;;12.93;;
15317;SDS011;7759;52.528;13.346;2022-11-24T08:21:26;31.13;;;12.53;;
15317;SDS011;7759;52.528;13.346;2022-11-24T08:23:53;30.63;;;10.93;;
15317;SDS011;7759;52.528;13.346;2022-11-24T08:26:19;36.03;;;13.77;;
15317;SDS011;7759;52.528;13.346;2022-11-24T08:28:46;26.07;;;11.70;;
15317;SDS011;7759;52.528;13.346;2022-11-24T08:31:14;25.37;;;11.47;;
15317;SDS011;7759;52.528;13.346;2022-11-24T08:33:41;23.97;;;10.90;;
15317;SDS011;7759;52.528;13.346;2022-11-24T08:36:10;23.33;;;11.30;;
15317;SDS011;7759;52.528;13.346;2022-11-24T08:38:36;24.40;;;11.87;;
15317;SDS011;7759;52.528;13.346;2022-11-24T08:41:03;26.13;;;11.10;;
15317;SDS011;7759;52.528;13.346;2022-11-24T08:43:30;26.93;;;12.17;;
15317;SDS011;7759;52.528;13.346;2022-11-24T08:45:59;24.87;;;11.60;;
15317;SDS011;7759;52.528;13.346;2022-11-24T08:48:25;30.80;;;12.40;;
15317;SDS011;7759;52.528;13.346;2022-11-24T08:50:51;23.63;;;11.57;;
15317;SDS011;7759;52.528;13.346;2022-11-24T08:53:17;29.73;;;12.83;;
15317;SDS011;7759;52.528;13.346;2022-11-24T08:55:43;24.77;;;11.53;;
15317;SDS011;7759;52.528;13.346;2022-11-24T08:58:09;27.93;;;12.20;;
15317;SDS011;7759;52.528;13.346;2022-11-24T09:00:35;24.77;;;11.73;;
15317;SDS011;7759;52.528;13.346;2022-11-24T09:03:01;35.10;;;13.40;;
15317;SDS011;7759;52.528;13.346;2022-11-24T09:05:27;29.40;;;12.57;;
15317;SDS011;7759;52.528;13.346;2022-11-24T09:07:53;23.33;;;11.07;;
15317;SDS011;7759;52.528;13.346;2022-11-24T09:10:19;24.73;;;11.77;;
15317;SDS011;7759;52.528;13.346;2022-11-24T09:12:45;20.27;;;9.63;;
15317;SDS011;7759;52.528;13.346;2022-11-24T09:15:12;20.87;;;10.23;;
15317;SDS011;7759;52.528;13.346;2022-11-24T09:17:40;23.30;;;11.10;;
15317;SDS011;7759;52.528;13.346;2022-11-24T09:20:06;29.63;;;14.77;;
15317;SDS011;7759;52.528;13.346;2022-11-24T09:22:32;19.13;;;9.37;;
15317;SDS011;7759;52.528;13.346;2022-11-24T09:24:58;28.07;;;12.40;;
15317;SDS011;7759;52.528;13.346;2022-11-24T09:27:23;30.03;;;12.93;;
15317;SDS011;7759;52.528;13.346;2022-11-24T09:29:49;34.53;;;14.37;;
15317;SDS011;7759;52.528;13.346;2022-11-24T09:32:16;29.27;;;12.23;;
15317;SDS011;7759;52.528;13.346;2022-11-24T09:34:41;25.63;;;11.93;;
15317;SDS011;7759;52.528;13.346;2022-11-24T09:37:07;32.17;;;13.43;;
15317;SDS011;7759;52.528;13.346;2022-11-24T09:39:33;29.70;;;12.70;;
15317;SDS011;7759;52.528;13.346;2022-11-24T09:42:13;28.83;;;11.87;;
15317;SDS011;7759;52.528;13.346;2022-11-24T09:47:08;27.33;;;12.30;;
15317;SDS011;7759;52.528;13.346;2022-11-24T09:49:38;24.23;;;11.80;;
15317;SDS011;7759;52.528;13.346;2022-11-24T09:52:07;31.13;;;11.80;;
15317;SDS011;7759;52.528;13.346;2022-11-24T09:54:34;27.63;;;12.27;;
15317;SDS011;7759;52.528;13.346;2022-11-24T09:57:00;20.90;;;10.90;;
15317;SDS011;7759;52.528;13.346;2022-11-24T09:59:28;25.80;;;11.73;;
15317;SDS011;7759;52.528;13.346;2022-11-24T10:01:54;24.33;;;11.43;;
15317;SDS011;7759;52.528;13.346;2022-11-24T10:06:52;24.60;;;12.47;;
15317;SDS011;7759;52.528;13.346;2022-11-24T10:14:48;28.37;;;11.73;;
15317;SDS011;7759;52.528;13.346;2022-11-24T10:20:18;26.60;;;11.70;;
15317;SDS011;7759;52.528;13.346;2022-11-24T10:22:58;15.77;;;8.33;;
15317;SDS011;7759;52.528;13.346;2022-11-24T10:28:11;20.50;;;10.27;;
15317;SDS011;7759;52.528;13.346;2022-11-24T10:30:38;24.03;;;13.37;;
15317;SDS011;7759;52.528;13.346;2022-11-24T10:33:11;26.53;;;11.67;;
15317;SDS011;7759;52.528;13.346;2022-11-24T10:35:40;22.40;;;11.97;;
15317;SDS011;7759;52.528;13.346;2022-11-24T10:40:45;23.50;;;11.43;;
15317;SDS011;7759;52.528;13.346;2022-11-24T10:43:13;23.57;;;11.23;;
15317;SDS011;7759;52.528;13.346;2022-11-24T10:45:39;21.67;;;11.60;;
15317;SDS011;7759;52.528;13.346;2022-11-24T10:48:06;27.50;;;12.23;;
15317;SDS011;7759;52.528;13.346;2022-11-24T10:50:36;24.27;;;13.00;;
15317;SDS011;7759;52.528;13.346;2022-11-24T10:53:17;23.40;;;11.30;;
15317;SDS011;7759;52.528;13.346;2022-11-24T10:58:35;23.00;;;11.73;;
15317;SDS011;7759;52.528;13.346;2022-11-24T11:03:49;20.87;;;11.00;;
15317;SDS011;7759;52.528;13.346;2022-11-24T11:06:21;25.67;;;12.75;;
15317;SDS011;7759;52.528;13.346;2022-11-24T11:08:47;26.03;;;12.67;;
15317;SDS011;7759;52.528;13.346;2022-11-24T11:11:17;23.63;;;11.13;;
15317;SDS011;7759;52.528;13.346;2022-11-24T11:13:53;24.53;;;12.63;;
15317;SDS011;7759;52.528;13.346;2022-11-24T11:19:05;23.97;;;12.07;;
15317;SDS011;7759;52.528;13.346;2022-11-24T11:22:00;29.07;;;14.10;;
15317;SDS011;7759;52.528;13.346;2022-11-24T11:24:26;24.17;;;11.97;;
15317;SDS011;7759;52.528;13.346;2022-11-24T11:27:00;28.20;;;12.70;;
15317;SDS011;7759;52.528;13.346;2022-11-24T11:29:27;29.00;;;13.70;;
15317;SDS011;7759;52.528;13.346;2022-11-24T11:32:01;23.87;;;10.90;;
15317;SDS011;7759;52.528;13.346;2022-11-24T11:34:29;26.53;;;12.73;;
15317;SDS011;7759;52.528;13.346;2022-11-24T11:36:57;21.43;;;10.53;;
15317;SDS011;7759;52.528;13.346;2022-11-24T11:39:25;25.30;;;11.23;;
15317;SDS011;7759;52.528;13.346;2022-11-24T11:41:57;25.47;;;12.80;;
15317;SDS011;7759;52.528;13.346;2022-11-24T11:44:27;23.43;;;11.23;;
15317;SDS011;7759;52.528;13.346;2022-11-24T11:46:54;25.67;;;12.60;;
15317;SDS011;7759;52.528;13.346;2022-11-24T11:49:23;23.67;;;11.50;;
15317;SDS011;7759;52.528;13.346;2022-11-24T11:51:52;27.53;;;12.40;;
15317;SDS011;7759;52.528;13.346;2022-11-24T11:57:06;25.50;;;13.73;;
15317;SDS011;7759;52.528;13.346;2022-11-24T11:59:44;23.07;;;11.43;;
15317;SDS011;7759;52.528;13.346;2022-11-24T12:02:23;19.47;;;10.77;;
15317;SDS011;7759;52.528;13.346;2022-11-24T12:04:58;25.83;;;13.13;;
15317;SDS011;7759;52.528;13.346;2022-11-24T12:07:32;23.93;;;11.97;;
15317;SDS011;7759;52.528;13.346;2022-11-24T12:12:33;25.83;;;12.53;;
15317;SDS011;7759;52.528;13.346;2022-11-24T12:17:33;22.27;;;11.23;;
15317;SDS011;7759;52.528;13.346;2022-11-24T12:20:06;21.23;;;12.23;;
15317;SDS011;7759;52.528;13.346;2022-11-24T12:22:41;39.80;;;20.30;;
15317;SDS011;7759;52.528;13.346;2022-11-24T12:25:19;29.03;;;13.73;;
15317;SDS011;7759;52.528;13.346;2022-11-24T12:30:16;20.00;;;10.07;;
15317;SDS011;7759;52.528;13.346;2022-11-24T12:32:53;19.70;;;10.83;;
15317;SDS011;7759;52.528;13.346;2022-11-24T12:35:41;23.67;;;11.70;;
15317;SDS011;7759;52.528;13.346;2022-11-24T12:38:23;19.23;;;10.13;;
15317;SDS011;7759;52.528;13.346;2022-11-24T12:41:15;21.33;;;10.87;;
15317;SDS011;7759;52.528;13.346;2022-11-24T12:43:48;19.57;;;11.07;;
15317;SDS011;7759;52.528;13.346;2022-11-24T12:46:20;25.00;;;12.50;;
15317;SDS011;7759;52.528;13.346;2022-11-24T12:51:17;22.63;;;12.10;;
15317;SDS011;7759;52.528;13.346;2022-11-24T12:53:45;18.33;;;9.43;;
15317;SDS011;7759;52.528;13.346;2022-11-24T12:56:12;18.17;;;10.23;;
15317;SDS011;7759;52.528;13.346;2022-11-24T12:58:57;20.20;;;10.43;;
15317;SDS011;7759;52.528;13.346;2022-11-24T13:01:32;20.07;;;10.03;;
15317;SDS011;7759;52.528;13.346;2022-11-24T13:06:11;19.67;;;9.20;;
15317;SDS011;7759;52.528;13.346;2022-11-24T13:08:40;23.83;;;14.43;;
15317;SDS011;7759;52.528;13.346;2022-11-24T13:13:57;19.10;;;11.00;;
15317;SDS011;7759;52.528;13.346;2022-11-24T13:16:24;20.70;;;10.87;;
15317;SDS011;7759;52.528;13.346;2022-11-24T13:18:54;20.07;;;11.07;;
15317;SDS011;7759;52.528;13.346;2022-11-24T13:29:36;31.45;;;15.85;;
15317;SDS011;7759;52.528;13.346;2022-11-24T13:37:17;22.33;;;12.07;;
15317;SDS011;7759;52.528;13.346;2022-11-24T13:39:50;26.37;;;12.73;;
15317;SDS011;7759;52.528;13.346;2022-11-24T13:42:16;18.73;;;9.87;;
15317;SDS011;7759;52.528;13.346;2022-11-24T13:44:43;19.93;;;10.23;;
15317;SDS011;7759;52.528;13.346;2022-11-24T13:49:53;20.67;;;11.67;;
15317;SDS011;7759;52.528;13.346;2022-11-24T13:52:35;20.20;;;10.87;;
15317;SDS011;7759;52.528;13.346;2022-11-24T13:57:40;21.43;;;11.53;;
15317;SDS011;7759;52.528;13.346;2022-11-24T14:02:42;21.43;;;11.93;;
15317;SDS011;7759;52.528;13.346;2022-11-24T14:05:12;20.53;;;11.00;;
15317;SDS011;7759;52.528;13.346;2022-11-24T14:07:45;15.60;;;9.03;;
15317;SDS011;7759;52.528;13.346;2022-11-24T14:10:13;18.93;;;10.07;;
15317;SDS011;7759;52.528;13.346;2022-11-24T14:12:39;18.93;;;9.40;;
15317;SDS011;7759;52.528;13.346;2022-11-24T14:18:12;17.80;;;10.00;;
15317;SDS011;7759;52.528;13.346;2022-11-24T14:20:40;24.27;;;11.00;;
15317;SDS011;7759;52.528;13.346;2022-11-24T14:23:07;23.83;;;11.93;;
15317;SDS011;7759;52.528;13.346;2022-11-24T14:25:33;20.63;;;11.10;;
15317;SDS011;7759;52.528;13.346;2022-11-24T14:27:59;19.27;;;11.57;;
15317;SDS011;7759;52.528;13.346;2022-11-24T14:30:26;22.70;;;11.27;;
15317;SDS011;7759;52.528;13.346;2022-11-24T14:32:54;25.43;;;12.73;;
15317;SDS011;7759;52.528;13.346;2022-11-24T14:35:28;21.73;;;11.40;;
15317;SDS011;7759;52.528;13.346;2022-11-24T14:37:54;22.87;;;11.23;;
15317;SDS011;7759;52.528;13.346;2022-11-24T14:43:12;22.20;;;11.10;;
15317;SDS011;7759;52.528;13.346;2022-11-24T14:45:46;23.73;;;11.57;;
15317;SDS011;7759;52.528;13.346;2022-11-24T14:48:15;19.00;;;10.73;;
15317;SDS011;7759;52.528;13.346;2022-11-24T14:50:42;17.15;;;8.32;;
15317;SDS011;7759;52.528;13.346;2022-11-24T14:53:10;18.80;;;10.90;;
15317;SDS011;7759;52.528;13.346;2022-11-24T14:55:38;18.40;;;10.63;;
15317;SDS011;7759;52.528;13.346;2022-11-24T14:58:18;21.73;;;10.90;;
15317;SDS011;7759;52.528;13.346;2022-11-24T15:00:44;19.43;;;10.27;;
15317;SDS011;7759;52.528;13.346;2022-11-24T15:03:30;21.20;;;11.13;;
15317;SDS011;7759;52.528;13.346;2022-11-24T15:05:57;18.90;;;10.85;;
15317;SDS011;7759;52.528;13.346;2022-11-24T15:08:24;17.00;;;10.17;;
15317;SDS011;7759;52.528;13.346;2022-11-24T15:10:55;20.63;;;11.17;;
15317;SDS011;7759;52.528;13.346;2022-11-24T15:13:22;21.93;;;10.10;;
15317;SDS011;7759;52.528;13.346;2022-11-24T15:15:50;21.00;;;11.80;;
15317;SDS011;7759;52.528;13.346;2022-11-24T15:18:22;20.83;;;11.70;;
15317;SDS011;7759;52.528;13.346;2022-11-24T15:20:49;19.07;;;10.10;;
15317;SDS011;7759;52.528;13.346;2022-11-24T15:25:41;22.27;;;10.43;;
15317;SDS011;7759;52.528;13.346;2022-11-24T15:28:07;16.73;;;9.77;;
15317;SDS011;7759;52.528;13.346;2022-11-24T15:30:34;20.70;;;10.23;;
15317;SDS011;7759;52.528;13.346;2022-11-24T15:33:00;23.33;;;12.23;;
15317;SDS011;7759;52.528;13.346;2022-11-24T15:35:28;18.97;;;10.37;;
15317;SDS011;7759;52.528;13.346;2022-11-24T15:37:54;18.80;;;10.37;;
15317;SDS011;7759;52.528;13.346;2022-11-24T15:40:20;17.07;;;9.50;;
15317;SDS011;7759;52.528;13.346;2022-11-24T15:42:53;21.00;;;11.07;;